Terminal Aerodrome Forecast
Issued by NWS

Home | Current Version | Previous Version | Text Only | Print | Product List | Glossary On
Versions: 1 2 3 4 5 6 7 8 9 10 11 12 13 14 15 16 17 18 19 20 21
000
FTUS43 KMKX 291351 AAA
TAFUES
TAF AMD
KUES 291351Z 2914/3012 01011G18KT P6SM FEW015
     FM291700 03013G23KT P6SM SCT025
     FM300000 03009KT P6SM BKN025 BKN035
     FM300600 04007KT P6SM VCSH BKN015
     FM301000 04008KT P6SM VCSH OVC008=

USA.gov is the U.S. government's official web portal to all federal, state and local government web resources and services.